Time;durP1;ratioP1;P1;durP2;ratioP2;P2;SDS_P1;SDS_P2;PMS_P1;PMS_P2;Temp;Humidity;BMP_temperature;BMP_pressure;BME280_temperature;BME280_humidity;BME280_pressure;Samples;Min_cycle;Max_cycle;Signal;HPM_P1;HPM_P2
2022/07/25 00:00:43;;;;;;;10.73;6.47;;;21.70;99.90;;;;;;4955220;29;20105;-77
2022/07/25 00:03:09;;;;;;;13.23;7.15;;;21.70;99.90;;;;;;4937960;29;20502;-78
2022/07/25 00:05:34;;;;;;;15.73;6.80;;;21.60;99.90;;;;;;4955599;29;20047;-79
2022/07/25 00:08:00;;;;;;;11.07;6.53;;;21.60;99.90;;;;;;4937850;29;20495;-79
2022/07/25 00:10:26;;;;;;;15.27;7.80;;;21.70;99.90;;;;;;4953679;29;20190;-80
2022/07/25 00:12:51;;;;;;;13.20;7.70;;;21.60;99.90;;;;;;4953735;29;20170;-79
2022/07/25 00:15:17;;;;;;;14.30;7.33;;;21.60;99.90;;;;;;4937693;29;20058;-79
2022/07/25 00:17:43;;;;;;;15.30;7.83;;;21.60;99.90;;;;;;4955375;28;20058;-78
2022/07/25 00:20:09;;;;;;;12.82;7.90;;;21.70;99.90;;;;;;4937646;29;20047;-79
2022/07/25 00:22:35;;;;;;;13.23;7.80;;;21.70;99.90;;;;;;4954810;29;20484;-78
2022/07/25 00:25:01;;;;;;;13.70;8.30;;;21.70;99.90;;;;;;4953802;29;20043;-77
2022/07/25 00:27:26;;;;;;;13.13;8.37;;;21.70;99.90;;;;;;4954791;29;20054;-79
2022/07/25 00:29:52;;;;;;;14.37;8.33;;;21.70;99.90;;;;;;4954696;28;20051;-79
2022/07/25 00:32:18;;;;;;;13.20;7.90;;;21.70;99.90;;;;;;4938071;29;20062;-81
2022/07/25 00:34:44;;;;;;;16.60;8.27;;;21.60;99.90;;;;;;4953614;29;20051;-80
2022/07/25 00:37:10;;;;;;;12.67;8.23;;;21.60;99.90;;;;;;4954941;29;20395;-80
2022/07/25 00:39:35;;;;;;;13.37;8.27;;;21.60;99.90;;;;;;4937598;29;20055;-78
2022/07/25 00:42:01;;;;;;;14.43;8.57;;;21.50;99.90;;;;;;4954704;29;20113;-78
2022/07/25 00:44:29;;;;;;;15.87;9.27;;;21.50;99.90;;;;;;4953008;29;20047;-79
2022/07/25 00:46:56;;;;;;;17.33;9.43;;;21.40;99.90;;;;;;4954349;29;20086;-78
2022/07/25 00:49:22;;;;;;;14.88;8.50;;;21.40;99.90;;;;;;4954772;28;20055;-79
2022/07/25 00:51:53;;;;;;;14.35;9.82;;;21.50;99.90;;;;;;4953491;29;20469;-78
2022/07/25 00:54:20;;;;;;;15.02;9.35;;;21.40;99.90;;;;;;4939650;29;20047;-77
2022/07/25 00:56:48;;;;;;;16.52;9.65;;;21.40;99.90;;;;;;4939874;29;20051;-81
2022/07/25 00:59:15;;;;;;;17.85;10.07;;;21.40;99.90;;;;;;4944665;29;20066;-80
2022/07/25 01:01:41;;;;;;;21.00;10.88;;;21.40;99.90;;;;;;4961006;29;20050;-79
2022/07/25 01:04:07;;;;;;;16.42;11.02;;;21.50;99.90;;;;;;4961207;28;20058;-80
2022/07/25 01:06:33;;;;;;;17.65;10.93;;;21.40;99.90;;;;;;4942487;29;20066;-78
2022/07/25 01:09:00;;;;;;;17.20;10.90;;;21.40;99.90;;;;;;4957676;28;20054;-79
2022/07/25 01:11:26;;;;;;;19.42;11.15;;;21.40;99.90;;;;;;4958221;29;20069;-79
2022/07/25 01:13:52;;;;;;;16.63;10.65;;;21.30;99.90;;;;;;4960048;28;20087;-77
2022/07/25 01:16:18;;;;;;;18.83;12.05;;;21.30;99.90;;;;;;4944840;29;20055;-78
2022/07/25 01:18:44;;;;;;;19.90;11.80;;;21.30;99.90;;;;;;4958469;28;20050;-79
2022/07/25 01:21:09;;;;;;;19.67;11.55;;;21.30;99.90;;;;;;4958232;28;20054;-79
2022/07/25 01:23:36;;;;;;;21.27;12.67;;;21.20;99.90;;;;;;4958242;28;20499;-78
2022/07/25 01:26:02;;;;;;;18.73;12.20;;;21.30;99.90;;;;;;4958577;28;20047;-78
2022/07/25 01:28:28;;;;;;;20.20;12.20;;;21.30;99.90;;;;;;4956847;29;20070;-79
2022/07/25 01:30:53;;;;;;;23.87;12.30;;;21.40;99.90;;;;;;4941307;29;20055;-78
2022/07/25 01:33:21;;;;;;;21.00;12.17;;;21.30;99.90;;;;;;4958100;28;20051;-79
2022/07/25 01:35:47;;;;;;;20.17;13.18;;;21.40;99.90;;;;;;4956811;29;20051;-80
2022/07/25 01:38:13;;;;;;;28.48;12.30;;;21.40;99.90;;;;;;4956378;29;20066;-79
2022/07/25 01:40:40;;;;;;;19.20;12.35;;;21.30;99.90;;;;;;4940786;29;20411;-79
2022/07/25 01:43:06;;;;;;;;;;;21.30;99.90;;;;;;4941119;29;20479;-78
2022/07/25 01:45:32;;;;;;;20.88;13.18;;;21.20;99.90;;;;;;4957481;29;19923;-79
2022/07/25 01:47:58;;;;;;;20.00;13.15;;;21.10;99.90;;;;;;4957360;29;20051;-80
2022/07/25 01:50:25;;;;;;;19.90;12.55;;;21.10;99.90;;;;;;4941202;29;20191;-79
2022/07/25 01:52:50;;;;;;;20.30;13.48;;;21.10;99.90;;;;;;4941188;29;20051;-80
2022/07/25 01:55:17;;;;;;;20.37;13.37;;;21.10;99.90;;;;;;4957729;28;20043;-80
2022/07/25 01:57:43;;;;;;;22.55;13.27;;;21.10;99.90;;;;;;4941324;29;20109;-80
2022/07/25 02:00:12;;;;;;;21.17;13.77;;;21.00;99.90;;;;;;4959073;28;20164;-79
2022/07/25 02:02:39;;;;;;;26.90;13.88;;;21.00;99.90;;;;;;4957711;29;20047;-79
2022/07/25 02:05:06;;;;;;;24.75;13.15;;;21.00;99.90;;;;;;4957813;29;20054;-78
2022/07/25 02:07:32;;;;;;;21.50;13.48;;;21.00;99.90;;;;;;4958329;29;20051;-79
2022/07/25 02:09:58;;;;;;;21.93;13.40;;;21.00;99.90;;;;;;4959635;28;20512;-77
2022/07/25 02:12:24;;;;;;;21.00;14.10;;;20.90;99.90;;;;;;4957977;29;20134;-79
2022/07/25 02:14:50;;;;;;;19.97;12.60;;;20.90;99.90;;;;;;4941915;29;20098;-78
2022/07/25 02:17:15;;;;;;;22.23;13.90;;;20.90;99.90;;;;;;4956884;29;20051;-77
2022/07/25 02:19:41;;;;;;;22.10;14.30;;;20.80;99.90;;;;;;4940332;29;20283;-77
2022/07/25 02:22:07;;;;;;;23.10;14.00;;;20.80;99.90;;;;;;4924757;29;20059;-78
2022/07/25 02:24:33;;;;;;;23.87;14.23;;;20.70;99.90;;;;;;4956886;29;20053;-82
2022/07/25 02:26:59;;;;;;;22.50;14.67;;;20.80;99.90;;;;;;4958068;28;20279;-78
2022/07/25 02:29:24;;;;;;;22.27;13.60;;;20.70;99.90;;;;;;4956486;28;20219;-77
2022/07/25 02:31:53;;;;;;;25.38;14.85;;;20.70;99.90;;;;;;4957601;28;20055;-76
2022/07/25 02:34:19;;;;;;;23.57;14.10;;;20.60;99.90;;;;;;4957568;28;20135;-77
2022/07/25 02:36:45;;;;;;;23.57;15.07;;;20.60;99.90;;;;;;4956380;29;20046;-79
2022/07/25 02:39:11;;;;;;;21.70;14.37;;;20.60;99.90;;;;;;4940233;29;20051;-80
2022/07/25 02:41:36;;;;;;;20.83;14.27;;;20.60;99.90;;;;;;4940280;29;20059;-78
2022/07/25 02:44:03;;;;;;;22.90;14.57;;;20.60;99.90;;;;;;4955702;29;20051;-77
2022/07/25 02:46:29;;;;;;;25.05;15.30;;;20.60;99.90;;;;;;4956725;28;20059;-77
2022/07/25 02:48:55;;;;;;;23.90;14.30;;;20.50;99.90;;;;;;4956008;29;20230;-77
2022/07/25 02:51:21;;;;;;;25.40;14.73;;;20.50;99.90;;;;;;4956538;28;20051;-78
2022/07/25 02:53:46;;;;;;;21.97;13.93;;;20.50;99.90;;;;;;4956135;29;20054;-78
2022/07/25 02:56:12;;;;;;;23.20;14.47;;;20.40;99.90;;;;;;4956989;28;20086;-77
2022/07/25 02:58:38;;;;;;;22.77;14.20;;;20.50;99.90;;;;;;4955758;28;20391;-79
2022/07/25 03:01:04;;;;;;;21.30;14.00;;;20.50;99.90;;;;;;4955776;29;20128;-79
2022/07/25 03:03:29;;;;;;;23.30;14.73;;;20.50;99.90;;;;;;4939999;29;20043;-78
2022/07/25 03:05:55;;;;;;;23.80;14.07;;;20.50;99.90;;;;;;4956108;28;20057;-78
2022/07/25 03:08:21;;;;;;;26.17;13.93;;;20.40;99.90;;;;;;4939658;29;20132;-78
2022/07/25 03:10:49;;;;;;;21.60;14.80;;;20.50;99.90;;;;;;4957697;28;20043;-78
2022/07/25 03:13:15;;;;;;;24.15;14.68;;;20.50;99.90;;;;;;4923629;29;20464;-77
2022/07/25 03:15:42;;;;;;;24.40;14.83;;;20.40;99.90;;;;;;4956318;28;20051;-79
2022/07/25 03:18:08;;;;;;;21.30;14.07;;;20.50;99.90;;;;;;4955263;29;20039;-78
2022/07/25 03:20:34;;;;;;;25.97;14.27;;;20.50;99.90;;;;;;4938189;29;20067;-79
2022/07/25 03:23:00;;;;;;;19.73;13.43;;;20.40;99.90;;;;;;4956181;28;20063;-78
2022/07/25 03:25:25;;;;;;;20.67;13.63;;;20.40;99.90;;;;;;4955454;29;20046;-77
2022/07/25 03:27:51;;;;;;;19.77;14.20;;;20.40;99.90;;;;;;4954862;29;20047;-77
2022/07/25 03:30:17;;;;;;;23.67;14.00;;;20.40;99.90;;;;;;4955979;29;20047;-79
2022/07/25 03:32:43;;;;;;;23.42;14.13;;;20.40;99.90;;;;;;4939111;29;20531;-78
2022/07/25 03:35:12;;;;;;;25.00;14.63;;;20.50;99.90;;;;;;4956531;28;20174;-77
2022/07/25 03:37:37;;;;;;;21.65;14.38;;;20.50;99.90;;;;;;4955767;28;20054;-78
2022/07/25 03:40:04;;;;;;;25.27;15.00;;;20.40;99.90;;;;;;4954801;29;20375;-78
2022/07/25 03:42:31;;;;;;;23.23;14.30;;;20.50;99.90;;;;;;4954827;29;20167;-78
2022/07/25 03:44:57;;;;;;;20.88;14.27;;;20.50;99.90;;;;;;4955719;28;20089;-78
2022/07/25 03:47:23;;;;;;;25.30;14.50;;;20.40;99.90;;;;;;4955729;28;20091;-77
2022/07/25 03:49:48;;;;;;;27.53;15.53;;;20.50;99.90;;;;;;4955457;28;20046;-77
2022/07/25 03:52:14;;;;;;;25.67;15.30;;;20.50;99.90;;;;;;4955293;29;20201;-78
2022/07/25 03:54:40;;;;;;;24.10;14.97;;;20.50;99.90;;;;;;4938753;29;20050;-78
2022/07/25 03:57:05;;;;;;;22.90;14.90;;;20.40;99.90;;;;;;4955129;28;20514;-78
2022/07/25 03:59:31;;;;;;;22.50;15.27;;;20.30;99.90;;;;;;4956016;28;20054;-78
2022/07/25 04:01:57;;;;;;;23.10;14.70;;;20.30;99.90;;;;;;4954349;29;20535;-78
2022/07/25 04:04:23;;;;;;;21.90;15.03;;;20.30;99.90;;;;;;4953942;29;20054;-79
2022/07/25 04:06:48;;;;;;;25.40;16.17;;;20.30;99.90;;;;;;4938248;29;20436;-79
2022/07/25 04:09:14;;;;;;;29.97;16.87;;;20.30;99.90;;;;;;4938217;29;20035;-78
2022/07/25 04:11:41;;;;;;;25.75;15.77;;;20.30;99.90;;;;;;4954804;29;20054;-80
2022/07/25 04:14:07;;;;;;;23.80;15.68;;;20.30;99.90;;;;;;4954073;29;20122;-78
2022/07/25 04:16:33;;;;;;;27.73;16.23;;;20.40;99.90;;;;;;4954365;29;20126;-77
2022/07/25 04:18:59;;;;;;;27.23;16.77;;;20.40;99.90;;;;;;4955156;28;20039;-77
2022/07/25 04:21:25;;;;;;;26.33;16.17;;;20.50;99.90;;;;;;4938100;29;20125;-79
2022/07/25 04:23:51;;;;;;;27.00;16.03;;;20.50;99.90;;;;;;4955373;28;20050;-77
2022/07/25 04:26:17;;;;;;;28.88;16.65;;;20.60;99.90;;;;;;4954282;29;20283;-79
2022/07/25 04:28:43;;;;;;;29.23;16.30;;;20.60;99.90;;;;;;4938176;29;20039;-77
2022/07/25 04:31:09;;;;;;;27.57;16.00;;;20.70;99.90;;;;;;4954297;29;20130;-77
2022/07/25 04:33:39;;;;;;;26.00;16.83;;;20.60;99.90;;;;;;4939479;29;20055;-76
2022/07/25 04:36:06;;;;;;;28.88;16.02;;;20.60;99.90;;;;;;4955800;28;20050;-76
2022/07/25 04:38:32;;;;;;;29.20;16.40;;;20.70;99.90;;;;;;4955512;28;20499;-77
2022/07/25 04:40:57;;;;;;;26.60;15.90;;;20.70;99.90;;;;;;4938807;29;20050;-77
2022/07/25 04:43:23;;;;;;;28.47;17.67;;;20.80;99.90;;;;;;4955940;28;20774;-77
2022/07/25 04:45:49;;;;;;;26.57;16.47;;;20.80;99.90;;;;;;4938644;29;20058;-76
2022/07/25 04:48:15;;;;;;;26.48;16.52;;;20.80;99.90;;;;;;4956881;28;20152;-77
2022/07/25 04:50:41;;;;;;;26.40;16.77;;;20.90;99.90;;;;;;4958088;28;20448;-77
2022/07/25 04:53:07;;;;;;;24.83;17.05;;;20.90;99.90;;;;;;4958851;29;20047;-75
2022/07/25 04:55:35;;;;;;;27.53;16.63;;;21.00;99.90;;;;;;4958445;28;20221;-78
2022/07/25 04:58:00;;;;;;;25.90;16.42;;;21.00;99.90;;;;;;4957740;29;20379;-78
2022/07/25 05:00:26;;;;;;;31.03;17.27;;;21.00;99.90;;;;;;4957854;29;20135;-78
2022/07/25 05:02:55;;;;;;;26.25;16.70;;;21.10;99.90;;;;;;4957190;29;20057;-84
2022/07/25 05:05:21;;;;;;;30.23;17.10;;;21.10;99.90;;;;;;4940846;29;20082;-78
2022/07/25 05:07:47;;;;;;;30.43;17.77;;;21.30;99.90;;;;;;4940417;29;20043;-77
2022/07/25 05:10:13;;;;;;;27.20;17.17;;;21.30;99.90;;;;;;4940578;29;20094;-77
2022/07/25 05:12:38;;;;;;;28.17;16.70;;;21.40;99.90;;;;;;4955491;29;20043;-77
2022/07/25 05:15:05;;;;;;;27.17;16.27;;;21.40;99.90;;;;;;4954334;29;20130;-77
2022/07/25 05:17:31;;;;;;;28.02;16.15;;;21.50;99.90;;;;;;4955281;29;20039;-78
2022/07/25 05:19:57;;;;;;;24.40;15.50;;;21.60;99.90;;;;;;4956804;29;20043;-77
2022/07/25 05:22:23;;;;;;;25.70;16.70;;;21.60;99.90;;;;;;4954769;29;20290;-78
2022/07/25 05:24:49;;;;;;;27.25;16.60;;;21.70;99.90;;;;;;4939116;29;20173;-79
2022/07/25 05:27:15;;;;;;;26.73;16.80;;;21.80;99.90;;;;;;4957598;28;20098;-77
2022/07/25 05:29:41;;;;;;;25.00;16.10;;;21.80;99.90;;;;;;4955992;29;20047;-77
2022/07/25 05:32:06;;;;;;;26.63;15.77;;;21.90;99.90;;;;;;4957224;29;20094;-78
2022/07/25 05:34:32;;;;;;;29.17;16.77;;;21.90;99.90;;;;;;4955780;29;20058;-77
2022/07/25 05:36:58;;;;;;;26.80;15.87;;;22.00;99.90;;;;;;4939872;29;20058;-79
2022/07/25 05:39:24;;;;;;;26.00;15.30;;;22.10;99.90;;;;;;4958199;28;20035;-78
2022/07/25 05:41:49;;;;;;;25.00;15.70;;;22.10;99.90;;;;;;4956487;29;20122;-77
2022/07/25 05:44:15;;;;;;;28.03;15.57;;;22.20;99.90;;;;;;4943299;29;20054;-78
2022/07/25 05:46:41;;;;;;;25.13;15.63;;;22.30;99.90;;;;;;4928879;29;20110;-79
2022/07/25 05:49:07;;;;;;;21.87;14.67;;;22.40;99.90;;;;;;4945260;29;20368;-77
2022/07/25 05:51:33;;;;;;;27.00;14.70;;;22.50;99.90;;;;;;4961036;29;20055;-77
2022/07/25 05:53:58;;;;;;;27.80;15.00;;;22.40;99.90;;;;;;4960717;29;20136;-85
2022/07/25 05:56:24;;;;;;;22.87;13.97;;;22.50;99.90;;;;;;4960116;29;20043;-78
2022/07/25 05:58:50;;;;;;;22.70;14.77;;;22.50;99.90;;;;;;4964515;28;20045;-77
2022/07/25 06:01:17;;;;;;;23.53;14.77;;;22.50;99.90;;;;;;4961671;28;20047;-77
2022/07/25 06:03:43;;;;;;;22.95;15.32;;;22.60;99.90;;;;;;4961481;28;20054;-77
2022/07/25 06:06:09;;;;;;;26.20;16.23;;;22.70;99.90;;;;;;4945329;29;20138;-75
2022/07/25 06:08:35;;;;;;;26.20;15.43;;;22.80;99.90;;;;;;4963207;28;20050;-77
2022/07/25 06:11:03;;;;;;;27.45;16.10;;;22.90;99.90;;;;;;4961293;29;20039;-81
2022/07/25 06:13:29;;;;;;;27.75;16.20;;;22.90;99.90;;;;;;4960223;29;20058;-77
2022/07/25 06:15:55;;;;;;;23.75;15.15;;;22.90;99.90;;;;;;4960244;29;20066;-79
2022/07/25 06:18:23;;;;;;;27.27;16.25;;;23.00;99.90;;;;;;4962705;29;20129;-78
2022/07/25 06:20:49;;;;;;;24.35;15.55;;;23.00;99.90;;;;;;4959363;29;20047;-76
2022/07/25 06:23:15;;;;;;;28.63;15.65;;;23.00;99.90;;;;;;4965492;28;20062;-76
2022/07/25 06:25:41;;;;;;;;;;;23.10;99.90;;;;;;4949421;29;20051;-79
2022/07/25 06:28:07;;;;;;;25.67;15.48;;;23.10;99.90;;;;;;4967274;29;19918;-77
2022/07/25 06:30:33;;;;;;;27.55;15.48;;;23.10;99.90;;;;;;4966238;28;20055;-77
2022/07/25 06:32:59;;;;;;;25.30;15.93;;;23.20;99.90;;;;;;4965835;28;20055;-78
2022/07/25 06:35:25;;;;;;;26.43;15.27;;;23.10;99.90;;;;;;4961472;29;20396;-76
2022/07/25 06:37:50;;;;;;;26.50;15.50;;;23.20;99.90;;;;;;4961341;29;20051;-78
2022/07/25 06:40:16;;;;;;;23.00;14.97;;;23.20;99.90;;;;;;4960219;29;20043;-76
2022/07/25 06:42:45;;;;;;;27.17;14.20;;;23.30;99.90;;;;;;4960115;29;20047;-78
2022/07/25 06:45:12;;;;;;;23.67;14.40;;;23.40;99.90;;;;;;4962926;28;20051;-77
2022/07/25 06:47:39;;;;;;;25.35;13.20;;;23.50;99.90;;;;;;4947655;29;20059;-79
2022/07/25 06:50:10;;;;;;;17.77;12.57;;;23.70;99.90;;;;;;4963716;29;20059;-77
2022/07/25 06:52:36;;;;;;;20.10;12.68;;;23.80;99.90;;;;;;4962402;29;20051;-76
2022/07/25 06:55:03;;;;;;;18.02;11.40;;;23.80;99.90;;;;;;4962140;28;20044;-77
2022/07/25 06:57:29;;;;;;;19.88;11.90;;;23.90;99.90;;;;;;4961996;29;20102;-77
2022/07/25 06:59:55;;;;;;;19.40;11.50;;;24.20;99.90;;;;;;4961966;29;20047;-82
2022/07/25 07:02:21;;;;;;;23.07;12.20;;;24.30;99.90;;;;;;4964832;29;20070;-76
2022/07/25 07:04:47;;;;;;;20.67;12.63;;;24.60;99.90;;;;;;4963941;29;20046;-76
2022/07/25 07:07:13;;;;;;;17.55;11.70;;;24.70;99.90;;;;;;4949661;29;20081;-77
2022/07/25 07:09:40;;;;;;;17.35;11.45;;;25.00;99.00;;;;;;4965216;28;20091;-79
2022/07/25 07:12:07;;;;;;;19.58;11.30;;;25.10;98.60;;;;;;4945933;29;20467;-78
2022/07/25 07:14:33;;;;;;;17.27;11.07;;;25.20;98.70;;;;;;4959809;29;20093;-82
2022/07/25 07:16:58;;;;;;;17.38;10.55;;;25.30;98.30;;;;;;4962243;28;20043;-75
2022/07/25 07:19:24;;;;;;;20.40;11.23;;;25.30;98.10;;;;;;4961983;28;20055;-76
2022/07/25 07:21:50;;;;;;;20.20;11.03;;;25.60;98.20;;;;;;4959878;29;20075;-77
2022/07/25 07:24:17;;;;;;;15.23;10.05;;;25.80;97.80;;;;;;4960657;29;20122;-77
2022/07/25 07:26:42;;;;;;;;;;;25.90;97.40;;;;;;4946470;29;20058;-79
2022/07/25 07:29:08;;;;;;;18.52;10.65;;;25.90;96.70;;;;;;4960084;29;19922;-77
2022/07/25 07:31:35;;;;;;;17.55;10.40;;;25.80;96.60;;;;;;4943029;29;20058;-78
2022/07/25 07:34:01;;;;;;;17.50;11.18;;;25.80;97.10;;;;;;4960057;28;20077;-81
2022/07/25 07:36:27;;;;;;;18.33;10.73;;;25.80;96.70;;;;;;4959946;28;20055;-77
2022/07/25 07:38:53;;;;;;;17.67;11.20;;;25.50;96.90;;;;;;4958286;29;20488;-79
2022/07/25 07:41:20;;;;;;;19.48;11.75;;;25.50;97.10;;;;;;4960056;29;20047;-80
2022/07/25 07:43:46;;;;;;;17.90;11.23;;;25.50;97.00;;;;;;4961483;28;20150;-76
2022/07/25 07:46:12;;;;;;;25.42;11.40;;;25.50;96.90;;;;;;4959067;29;20066;-81
2022/07/25 07:48:38;;;;;;;16.40;10.85;;;25.30;97.10;;;;;;4959298;29;20058;-75
2022/07/25 07:51:04;;;;;;;18.38;10.27;;;25.30;97.30;;;;;;4959158;29;20043;-77
2022/07/25 07:56:15;;;;;;;16.65;10.07;;;25.50;97.40;;;;;;4957768;28;20058;-78
2022/07/25 07:58:41;;;;;;;;;;;25.70;97.10;;;;;;4942965;29;20054;-78
2022/07/25 08:01:07;;;;;;;15.60;9.60;;;25.90;96.40;;;;;;4958576;28;19922;-80
2022/07/25 08:03:33;;;;;;;14.03;8.63;;;26.10;95.90;;;;;;4958331;29;20054;-78
2022/07/25 08:05:59;;;;;;;15.17;8.30;;;26.10;95.40;;;;;;4958391;28;20299;-76
2022/07/25 08:08:26;;;;;;;12.88;7.60;;;26.10;95.30;;;;;;4959226;28;20321;-76
2022/07/25 08:10:52;;;;;;;12.60;7.05;;;26.10;95.30;;;;;;4943009;29;20047;-78
2022/07/25 08:13:23;;;;;;;14.32;7.28;;;26.00;94.60;;;;;;4957041;29;20510;-77
2022/07/25 08:15:52;;;;;;;13.55;7.70;;;25.90;94.80;;;;;;4941964;29;20113;-76
2022/07/25 08:18:18;;;;;;;13.95;6.63;;;25.70;94.70;;;;;;4958119;28;20047;-77
2022/07/25 08:20:49;;;;;;;13.27;7.18;;;25.70;95.00;;;;;;4957141;29;20051;-77
2022/07/25 08:23:15;;;;;;;13.60;7.03;;;25.70;95.10;;;;;;4926938;29;20055;-79
2022/07/25 08:25:42;;;;;;;;;;;25.60;95.20;;;;;;4941884;29;20058;-76
2022/07/25 08:28:08;;;;;;;12.55;7.57;;;25.70;95.50;;;;;;4955298;29;19926;-77
2022/07/25 08:30:36;;;;;;;12.15;7.18;;;25.70;95.60;;;;;;4955857;29;20094;-80
2022/07/25 08:33:05;;;;;;;12.15;7.50;;;25.40;95.80;;;;;;4955682;28;20045;-76
2022/07/25 08:35:33;;;;;;;18.67;7.82;;;25.50;95.60;;;;;;4955526;29;20074;-77
2022/07/25 08:38:00;;;;;;;10.30;6.95;;;25.40;95.80;;;;;;4954339;29;20047;-76
2022/07/25 08:40:28;;;;;;;14.15;8.05;;;25.40;96.00;;;;;;4955645;28;20381;-77
2022/07/25 08:42:57;;;;;;;14.90;7.45;;;25.50;96.00;;;;;;4954951;29;20051;-78
2022/07/25 08:45:25;;;;;;;13.10;7.72;;;25.60;95.90;;;;;;4954554;29;20059;-75
2022/07/25 08:47:53;;;;;;;14.77;8.05;;;25.70;95.90;;;;;;4955483;29;20416;-76
2022/07/25 08:50:24;;;;;;;14.18;8.27;;;25.80;95.90;;;;;;4956943;28;20443;-78
2022/07/25 08:52:51;;;;;;;12.48;8.20;;;25.80;95.80;;;;;;4939515;29;20057;-77
2022/07/25 08:55:20;;;;;;;15.85;8.02;;;25.70;95.90;;;;;;4938670;29;20047;-77
2022/07/25 08:57:52;;;;;;;15.77;7.63;;;25.70;95.80;;;;;;4954931;29;20074;-78
2022/07/25 09:00:23;;;;;;;12.38;7.63;;;25.70;95.70;;;;;;4955824;29;20063;-77
2022/07/25 09:02:54;;;;;;;13.40;7.65;;;25.80;95.80;;;;;;4954851;29;20113;-80
2022/07/25 09:05:21;;;;;;;12.90;7.20;;;25.80;95.80;;;;;;4938919;29;20134;-77
2022/07/25 09:07:48;;;;;;;14.77;8.57;;;25.80;96.00;;;;;;4956305;29;20050;-78
2022/07/25 09:10:32;;;;;;;13.57;8.25;;;25.90;95.80;;;;;;4939626;29;20059;-78
2022/07/25 09:13:00;;;;;;;19.35;7.80;;;25.80;95.80;;;;;;4956828;28;20046;-79
2022/07/25 09:15:37;;;;;;;11.35;7.05;;;25.80;95.90;;;;;;4954699;29;20110;-77
2022/07/25 09:18:08;;;;;;;15.02;7.80;;;25.80;96.10;;;;;;4956332;28;20121;-80
2022/07/25 09:20:39;;;;;;;13.15;7.53;;;26.00;96.40;;;;;;4959456;28;20047;-79
2022/07/25 09:23:06;;;;;;;9.88;5.63;;;26.40;96.00;;;;;;4959415;29;20047;-79
2022/07/25 09:25:31;;;;;;;9.10;3.70;;;26.50;94.50;;;;;;4958064;29;20140;-80
2022/07/25 09:28:15;;;;;;;5.20;2.72;;;26.50;94.20;;;;;;4958413;29;20471;-79
2022/07/25 09:30:56;;;;;;;5.45;2.50;;;26.30;92.40;;;;;;4957710;29;20059;-76
2022/07/25 09:33:27;;;;;;;7.40;2.05;;;26.40;92.90;;;;;;4957914;29;20047;-80
2022/07/25 09:35:54;;;;;;;3.92;1.80;;;26.30;91.10;;;;;;4958929;29;20062;-80
2022/07/25 09:38:23;;;;;;;5.68;1.67;;;26.10;91.80;;;;;;4958797;28;20062;-78
2022/07/25 09:41:00;;;;;;;4.97;2.10;;;26.30;92.00;;;;;;4941511;29;20047;-77
2022/07/25 09:43:42;;;;;;;4.82;1.80;;;26.30;91.60;;;;;;4957278;29;20106;-78
2022/07/25 09:46:09;;;;;;;4.63;2.45;;;26.00;91.80;;;;;;4957712;29;20087;-78
2022/07/25 09:48:36;;;;;;;4.30;2.30;;;26.30;92.00;;;;;;4941782;29;20047;-77
2022/07/25 09:51:03;;;;;;;5.55;2.45;;;26.70;92.00;;;;;;4957182;29;20047;-77
2022/07/25 09:53:28;;;;;;;;;;;26.80;91.70;;;;;;4957760;29;20094;-76
2022/07/25 09:55:56;;;;;;;4.07;2.30;;;26.70;91.80;;;;;;4958427;29;19926;-78
2022/07/25 09:58:29;;;;;;;6.10;2.70;;;26.30;92.30;;;;;;4940962;29;20115;-79
2022/07/25 10:01:03;;;;;;;10.73;3.25;;;26.20;92.70;;;;;;4957666;28;20058;-76
2022/07/25 10:03:51;;;;;;;7.65;2.83;;;25.80;93.40;;;;;;4957182;29;20058;-76
2022/07/25 10:06:48;;;;;;;10.95;2.72;;;25.70;93.60;;;;;;4956800;29;20118;-77
2022/07/25 10:09:15;;;;;;;5.15;2.60;;;25.50;95.30;;;;;;4958351;29;20043;-78
2022/07/25 10:12:02;;;;;;;5.25;2.45;;;25.40;94.70;;;;;;4959834;29;20055;-80
2022/07/25 10:14:28;;;;;;;7.38;2.20;;;25.40;95.00;;;;;;4944141;29;20082;-80
2022/07/25 10:16:54;;;;;;;5.85;1.90;;;25.50;95.40;;;;;;4943576;29;20050;-79
2022/07/25 10:19:45;;;;;;;5.43;1.80;;;25.70;95.50;;;;;;4927475;29;20055;-77
2022/07/25 10:22:16;;;;;;;6.55;2.05;;;26.00;95.20;;;;;;4954745;28;20166;-77
2022/07/25 10:24:45;;;;;;;4.55;1.90;;;26.30;95.00;;;;;;4958037;28;20067;-76
2022/07/25 10:27:21;;;;;;;9.25;2.33;;;26.50;95.00;;;;;;4960577;29;20059;-78
2022/07/25 10:29:53;;;;;;;4.53;2.03;;;26.70;94.10;;;;;;4944965;29;20087;-79
2022/07/25 10:32:18;;;;;;;4.78;2.05;;;26.80;93.90;;;;;;4943203;29;20051;-75
2022/07/25 10:34:54;;;;;;;6.28;2.30;;;27.00;94.10;;;;;;4961333;29;20476;-78
2022/07/25 10:37:28;;;;;;;5.22;2.05;;;27.20;93.60;;;;;;4961977;29;20047;-78
2022/07/25 10:39:55;;;;;;;11.02;2.53;;;27.20;93.40;;;;;;4962133;28;20364;-79
2022/07/25 10:42:32;;;;;;;9.75;1.92;;;27.20;93.10;;;;;;4945739;29;20087;-78
2022/07/25 10:45:04;;;;;;;4.93;1.60;;;27.10;93.30;;;;;;4943630;29;20411;-77
2022/07/25 10:47:41;;;;;;;7.55;1.50;;;27.00;93.40;;;;;;4959131;29;20051;-81
2022/07/25 10:50:11;;;;;;;4.05;1.48;;;26.90;93.60;;;;;;4944319;29;20044;-78
2022/07/25 10:52:41;;;;;;;3.83;1.40;;;26.90;94.00;;;;;;4929460;29;20047;-78
2022/07/25 10:55:09;;;;;;;5.22;1.42;;;26.90;94.10;;;;;;4960315;29;20047;-76
2022/07/25 10:57:36;;;;;;;5.50;1.20;;;26.80;94.20;;;;;;4958448;29;20137;-78
2022/07/25 11:00:10;;;;;;;11.45;1.55;;;26.80;94.60;;;;;;4959958;29;20395;-79
2022/07/25 11:02:36;;;;;;;4.50;1.10;;;26.70;94.70;;;;;;4943713;29;20059;-80
2022/07/25 11:05:03;;;;;;;3.85;1.38;;;26.70;95.10;;;;;;4942777;29;20110;-77
2022/07/25 11:07:36;;;;;;;3.78;1.30;;;26.50;95.00;;;;;;4958369;29;20087;-78
2022/07/25 11:10:04;;;;;;;4.88;1.20;;;26.50;95.50;;;;;;4942470;29;20353;-78
2022/07/25 11:12:30;;;;;;;7.30;1.00;;;26.40;95.60;;;;;;4958554;29;20066;-77
2022/07/25 11:15:02;;;;;;;3.40;0.90;;;26.50;95.40;;;;;;4958034;28;20043;-76
2022/07/25 11:17:29;;;;;;;8.40;1.30;;;26.20;95.70;;;;;;4957409;29;20051;-79
2022/07/25 11:20:05;;;;;;;2.85;1.00;;;26.10;96.00;;;;;;4942437;29;20052;-81
2022/07/25 11:22:31;;;;;;;4.57;1.20;;;26.10;96.20;;;;;;4958676;29;20485;-78
2022/07/25 11:24:58;;;;;;;6.05;1.40;;;26.20;95.90;;;;;;4925864;29;20051;-77
2022/07/25 11:27:28;;;;;;;9.93;1.75;;;26.10;96.80;;;;;;4941305;29;20059;-77
2022/07/25 11:30:09;;;;;;;7.72;1.67;;;25.70;97.60;;;;;;4956985;29;20059;-78
2022/07/25 11:32:43;;;;;;;9.05;1.88;;;25.80;97.40;;;;;;4957175;29;20065;-83
2022/07/25 11:35:10;;;;;;;8.43;1.63;;;25.90;97.30;;;;;;4940352;29;20079;-78
2022/07/25 11:37:38;;;;;;;5.82;1.50;;;25.50;96.80;;;;;;4923334;29;20055;-79
2022/07/25 11:40:05;;;;;;;9.77;1.48;;;25.70;97.10;;;;;;4956990;29;20361;-78
2022/07/25 11:42:43;;;;;;;6.30;1.67;;;25.50;97.50;;;;;;4938307;29;20051;-81
2022/07/25 11:45:23;;;;;;;7.93;1.60;;;25.70;97.10;;;;;;4956338;29;20103;-78
2022/07/25 11:48:06;;;;;;;6.82;1.52;;;25.70;96.60;;;;;;4953479;28;20066;-76
2022/07/25 11:50:34;;;;;;;7.07;1.63;;;25.90;95.40;;;;;;4955888;28;20095;-76
2022/07/25 11:53:04;;;;;;;5.63;1.50;;;26.10;95.70;;;;;;4955664;29;20101;-76
2022/07/25 11:55:32;;;;;;;7.75;1.75;;;26.30;95.70;;;;;;4955679;28;20586;-76
2022/07/25 11:58:00;;;;;;;6.80;1.50;;;26.70;95.20;;;;;;4956155;29;20139;-79
2022/07/25 12:00:27;;;;;;;6.53;1.70;;;27.00;94.50;;;;;;4955202;29;20131;-76
2022/07/25 12:02:53;;;;;;;6.97;1.58;;;27.00;94.30;;;;;;4923575;29;20344;-78
2022/07/25 12:05:22;;;;;;;8.93;1.55;;;27.10;94.00;;;;;;4955201;29;20043;-76
2022/07/25 12:08:08;;;;;;;6.22;1.23;;;27.10;94.80;;;;;;4954898;29;20082;-83
2022/07/25 12:10:35;;;;;;;8.02;1.70;;;27.40;94.10;;;;;;4956330;28;20055;-78
2022/07/25 12:13:03;;;;;;;6.57;1.90;;;27.20;93.30;;;;;;4954944;29;20046;-79
2022/07/25 12:15:37;;;;;;;7.50;1.75;;;27.20;93.20;;;;;;4955734;29;20496;-77
2022/07/25 12:18:05;;;;;;;11.43;2.08;;;26.70;93.70;;;;;;4953858;29;20062;-77
2022/07/25 12:20:39;;;;;;;6.60;1.50;;;26.30;94.10;;;;;;4954926;29;20134;-82
2022/07/25 12:23:10;;;;;;;9.27;1.80;;;25.30;95.50;;;;;;4954750;29;20492;-76
2022/07/25 12:25:38;;;;;;;11.88;1.65;;;25.30;96.10;;;;;;4953583;29;20062;-77
2022/07/25 12:28:05;;;;;;;9.00;1.77;;;25.00;96.30;;;;;;4954449;29;20527;-77
2022/07/25 12:30:33;;;;;;;7.35;1.60;;;24.90;96.10;;;;;;4954954;28;20551;-77
2022/07/25 12:32:59;;;;;;;7.75;1.30;;;25.30;95.40;;;;;;4955035;29;20138;-80
2022/07/25 12:35:25;;;;;;;;;;;25.40;94.90;;;;;;4955220;29;20528;-77
2022/07/25 12:37:51;;;;;;;;;;;25.60;94.00;;;;;;4954578;29;19923;-77
2022/07/25 12:40:17;;;;;;;;;;;25.60;94.00;;;;;;4953991;29;19930;-78